Time;durP1;ratioP1;P1;durP2;ratioP2;P2;SDS_P1;SDS_P2;PMS_P1;PMS_P2;Temp;Humidity;BMP_temperature;BMP_pressure;BME280_temperature;BME280_humidity;BME280_pressure;Samples;Min_cycle;Max_cycle;Signal;HPM_P1;HPM_P2
2023/05/05 00:00:54;;;;;;;;;;;;;;;14.18;nan;100473.38;5020227;28;19953;-78
2023/05/05 00:03:20;;;;;;;;;;;;;;;14.16;nan;100474.56;5037876;28;19921;-79
2023/05/05 00:05:46;;;;;;;;;;;;;;;14.13;nan;100478.38;5019660;28;19921;-78
2023/05/05 00:08:11;;;;;;;;;;;;;;;14.08;nan;100478.06;5018462;28;19921;-78
2023/05/05 00:10:37;;;;;;;;;;;;;;;14.03;nan;100475.13;5036835;28;19931;-79
2023/05/05 00:13:02;;;;;;;;;;;;;;;13.94;nan;100477.00;5016118;28;20377;-79
2023/05/05 00:15:27;;;;;;;;;;;;;;;13.89;nan;100471.38;5018016;28;19921;-79
2023/05/05 00:17:52;;;;;;;;;;;;;;;13.87;nan;100481.38;5032751;28;19921;-77
2023/05/05 00:20:17;;;;;;;;;;;;;;;13.80;nan;100480.41;5038070;28;19927;-78
2023/05/05 00:22:43;;;;;;;;;;;;;;;13.75;nan;100475.63;5018637;28;19921;-78
2023/05/05 00:25:08;;;;;;;;;;;;;;;13.75;nan;100482.75;5036475;28;19975;-77
2023/05/05 00:27:33;;;;;;;;;;;;;;;13.77;nan;100481.56;5014720;28;20012;-80
2023/05/05 00:29:58;;;;;;;;;;;;;;;13.75;nan;100478.28;5018146;28;20305;-80
2023/05/05 00:32:23;;;;;;;;;;;;;;;13.75;nan;100477.41;5018344;28;19921;-79
2023/05/05 00:34:49;;;;;;;;;;;;;;;13.72;nan;100477.78;5038838;28;19924;-80
2023/05/05 00:37:14;;;;;;;;;;;;;;;13.68;nan;100476.47;5037693;28;19917;-81
2023/05/05 00:39:39;;;;;;;;;;;;;;;13.67;nan;100477.47;5028663;28;19921;-79
2023/05/05 00:42:04;;;;;;;;;;;;;;;13.64;nan;100478.66;5027656;28;19944;-81
2023/05/05 00:44:38;;;;;;;;;;;;;;;13.55;nan;100480.50;5031137;28;20389;-79
2023/05/05 00:47:03;;;;;;;;;;;;;;;13.53;nan;100476.38;5037063;28;20004;-79
2023/05/05 00:49:29;;;;;;;;;;;;;;;13.58;nan;100479.31;5025511;28;20024;-78
2023/05/05 00:51:55;;;;;;;;;;;;;;;13.66;nan;100484.63;5034091;28;19924;-77
2023/05/05 00:54:21;;;;;;;;;;;;;;;13.74;nan;100476.59;5017915;28;20028;-80
2023/05/05 00:56:47;;;;;;;;;;;;;;;13.81;nan;100466.94;5015088;28;19979;-79
2023/05/05 00:59:12;;;;;;;;;;;;;;;13.86;nan;100471.72;5036965;28;19925;-79
2023/05/05 01:01:38;;;;;;;;;;;;;;;13.92;nan;100472.84;5021767;28;19924;-79
2023/05/05 01:04:03;;;;;;;;;;;;;;;13.92;nan;100468.38;5018694;28;20385;-80
2023/05/05 01:06:37;;;;;;;;;;;;;;;13.94;nan;100473.50;5036249;28;19928;-79
2023/05/05 01:09:10;;;;;;;;;;;;;;;13.96;nan;100471.50;5030202;28;19929;-79
2023/05/05 01:11:48;;;;;;;;;;;;;;;13.96;nan;100466.19;5037373;28;19925;-79
2023/05/05 01:14:19;;;;;;;;;;;;;;;13.96;nan;100453.72;5016257;28;19917;-78
2023/05/05 01:16:54;;;;;;;;;;;;;;;14.01;nan;100447.88;5036825;28;19920;-78
2023/05/05 01:19:29;;;;;;;;;;;;;;;14.02;nan;100438.91;5019862;28;19925;-78
2023/05/05 01:22:02;;;;;;;;;;;;;;;13.99;nan;100434.78;5015207;28;20421;-78
2023/05/05 01:24:39;;;;;;;;;;;;;;;13.93;nan;100438.13;5017930;28;19925;-80
2023/05/05 01:27:24;;;;;;;;;;;;;;;13.97;nan;100439.44;5015107;28;19971;-79
2023/05/05 01:30:02;;;;;;;;;;;;;;;14.08;nan;100427.56;5030398;28;19936;-77
2023/05/05 01:32:30;;;;;;;;;;;;;;;14.23;nan;100432.94;5031513;28;19921;-78
2023/05/05 01:35:05;;;;;;;;;;;;;;;14.26;nan;100445.06;5017491;28;19921;-79
2023/05/05 01:37:35;;;;;;;;;;;;;;;14.18;nan;100446.78;5028858;28;19921;-80
2023/05/05 01:40:03;;;;;;;;;;;;;;;14.13;nan;100443.78;5018347;28;20316;-79
2023/05/05 01:42:29;;;;;;;;;;;;;;;14.05;nan;100453.69;5037597;28;19921;-80
2023/05/05 01:44:55;;;;;;;;;;;;;;;13.99;nan;100457.84;5024806;28;19956;-82
2023/05/05 01:47:21;;;;;;;;;;;;;;;13.95;nan;100462.72;5041396;28;19921;-79
2023/05/05 01:49:48;;;;;;;;;;;;;;;13.92;nan;100462.22;5030233;28;19942;-77
2023/05/05 01:52:14;;;;;;;;;;;;;;;13.91;nan;100468.53;5038148;28;19921;-79
2023/05/05 01:54:41;;;;;;;;;;;;;;;13.85;nan;100471.88;5021081;28;19933;-79
2023/05/05 01:57:07;;;;;;;;;;;;;;;13.80;nan;100470.59;5020786;28;19921;-77
2023/05/05 01:59:32;;;;;;;;;;;;;;;13.77;nan;100478.91;5034212;28;19995;-80
2023/05/05 02:01:59;;;;;;;;;;;;;;;13.71;nan;100482.28;5020493;28;19921;-79
2023/05/05 02:04:25;;;;;;;;;;;;;;;13.66;nan;100483.78;5019405;28;19925;-78
2023/05/05 02:06:52;;;;;;;;;;;;;;;13.60;nan;100483.47;5037804;28;19921;-78
2023/05/05 02:09:18;;;;;;;;;;;;;;;13.57;nan;100494.44;5037467;28;19929;-80
2023/05/05 02:11:43;;;;;;;;;;;;;;;13.52;nan;100488.81;5039213;28;19921;-78
2023/05/05 02:14:09;;;;;;;;;;;;;;;13.50;nan;100492.66;5016424;28;19987;-79
2023/05/05 02:16:36;;;;;;;;;;;;;;;13.46;nan;100496.66;5018369;28;19928;-79
2023/05/05 02:19:04;;;;;;;;;;;;;;;13.36;nan;100497.66;5047536;22;20292;-86
2023/05/05 02:21:30;;;;;;;;;;;;;;;13.26;nan;100504.97;5012679;28;19929;-85
2023/05/05 02:23:56;;;;;;;;;;;;;;;13.21;nan;100502.00;5029268;28;19925;-84
2023/05/05 02:26:23;;;;;;;;;;;;;;;13.16;nan;100509.66;5028512;28;19929;-86
2023/05/05 02:28:51;;;;;;;;;;;;;;;13.10;nan;100519.09;5011741;28;20549;-85
2023/05/05 02:31:17;;;;;;;;;;;;;;;13.06;nan;100520.47;5026520;28;19921;-84
2023/05/05 02:33:43;;;;;;;;;;;;;;;13.05;nan;100513.47;5012904;28;19971;-85
2023/05/05 02:36:15;;;;;;;;;;;;;;;13.08;nan;100507.00;5011398;28;19927;-85
2023/05/05 02:38:41;;;;;;;;;;;;;;;13.13;nan;100518.78;5029333;28;20012;-85
2023/05/05 02:41:09;;;;;;;;;;;;;;;13.16;nan;100515.78;5012925;28;19928;-85
2023/05/05 02:43:37;;;;;;;;;;;;;;;13.18;nan;100519.09;5023271;28;19926;-84
2023/05/05 02:46:02;;;;;;;;;;;;;;;13.18;nan;100516.44;5027402;28;19960;-85
2023/05/05 02:48:28;;;;;;;;;;;;;;;13.13;nan;100513.47;5011787;28;19953;-86
2023/05/05 02:50:53;;;;;;;;;;;;;;;13.05;nan;100510.81;5028247;28;19921;-86
2023/05/05 02:53:23;;;;;;;;;;;;;;;13.00;nan;100505.19;5012087;28;19929;-85
2023/05/05 02:56:00;;;;;;;;;;;;;;;12.97;nan;100494.91;5010667;28;19958;-85
2023/05/05 02:58:26;;;;;;;;;;;;;;;12.92;nan;100503.38;5010807;28;20048;-86
2023/05/05 03:00:54;;;;;;;;;;;;;;;12.83;nan;100506.22;5029532;28;20074;-85
2023/05/05 03:03:39;;;;;;;;;;;;;;;12.72;nan;100507.38;5007242;28;20385;-86
2023/05/05 03:06:16;;;;;;;;;;;;;;;12.61;nan;100505.03;5013314;28;19921;-85
2023/05/05 03:08:48;;;;;;;;;;;;;;;12.50;nan;100509.69;5010776;28;19933;-87
2023/05/05 03:11:31;;;;;;;;;;;;;;;12.44;nan;100507.69;5005864;28;20380;-85
2023/05/05 03:14:05;;;;;;;;;;;;;;;12.40;nan;100502.88;5010974;28;19936;-86
2023/05/05 03:16:31;;;;;;;;;;;;;;;12.36;nan;100512.97;5024227;28;19935;-85
2023/05/05 03:18:58;;;;;;;;;;;;;;;12.31;nan;100513.47;5011633;28;19929;-85
2023/05/05 03:21:23;;;;;;;;;;;;;;;12.29;nan;100520.75;5012553;28;19921;-86
2023/05/05 03:23:48;;;;;;;;;;;;;;;12.24;nan;100512.47;5028340;28;20339;-85
2023/05/05 03:26:15;;;;;;;;;;;;;;;12.22;nan;100509.13;5012788;28;19965;-85
2023/05/05 03:28:40;;;;;;;;;;;;;;;12.25;nan;100513.28;5029291;28;19925;-86
2023/05/05 03:31:06;;;;;;;;;;;;;;;12.23;nan;100515.28;5028450;28;19936;-86
2023/05/05 03:33:31;;;;;;;;;;;;;;;12.24;nan;100511.63;5025425;28;20028;-85
2023/05/05 03:35:56;;;;;;;;;;;;;;;12.26;nan;100507.00;5029694;28;19930;-85
2023/05/05 03:38:21;;;;;;;;;;;;;;;12.21;nan;100519.94;5010870;28;19925;-87
2023/05/05 03:40:47;;;;;;;;;;;;;;;12.13;nan;100520.72;5011763;28;19960;-85
2023/05/05 03:43:12;;;;;;;;;;;;;;;12.10;nan;100519.22;5009796;28;19944;-86
2023/05/05 03:45:37;;;;;;;;;;;;;;;12.11;nan;100512.94;5011000;28;19925;-86
2023/05/05 03:48:02;;;;;;;;;;;;;;;12.16;nan;100516.94;5005646;28;20384;-86
2023/05/05 03:50:27;;;;;;;;;;;;;;;12.18;nan;100525.53;5009849;28;19925;-87
2023/05/05 03:52:53;;;;;;;;;;;;;;;12.15;nan;100531.16;5011590;28;19920;-85
2023/05/05 03:55:18;;;;;;;;;;;;;;;12.14;nan;100530.34;5029634;28;19945;-86
2023/05/05 03:57:44;;;;;;;;;;;;;;;12.15;nan;100539.94;5010208;28;20451;-86
2023/05/05 04:00:10;;;;;;;;;;;;;;;12.24;nan;100535.50;5009466;28;19921;-85
2023/05/05 04:02:36;;;;;;;;;;;;;;;12.36;nan;100530.72;5010600;28;20032;-85
2023/05/05 04:05:01;;;;;;;;;;;;;;;12.44;nan;100533.38;5011720;28;20018;-86
2023/05/05 04:07:26;;;;;;;;;;;;;;;12.52;nan;100546.66;5009701;28;20300;-86
2023/05/05 04:09:51;;;;;;;;;;;;;;;12.63;nan;100549.00;5009952;28;19940;-86
2023/05/05 04:12:17;;;;;;;;;;;;;;;12.71;nan;100537.56;5009769;28;20455;-86
2023/05/05 04:14:42;;;;;;;;;;;;;;;12.77;nan;100544.84;5009586;28;19933;-86
2023/05/05 04:17:07;;;;;;;;;;;;;;;12.77;nan;100547.50;5028943;28;20376;-85
2023/05/05 04:19:33;;;;;;;;;;;;;;;12.72;nan;100547.16;5010040;28;19921;-86
2023/05/05 04:21:58;;;;;;;;;;;;;;;12.72;nan;100539.19;5018485;28;19951;-86
2023/05/05 04:24:24;;;;;;;;;;;;;;;12.73;nan;100531.09;5009167;28;19929;-86
2023/05/05 04:26:53;;;;;;;;;;;;;;;12.74;nan;100532.72;5003210;28;19925;-85
2023/05/05 04:29:18;;;;;;;;;;;;;;;12.72;nan;100528.59;5026826;28;20558;-86
2023/05/05 04:31:44;;;;;;;;;;;;;;;12.72;nan;100523.28;5027612;28;20004;-85
2023/05/05 04:34:09;;;;;;;;;;;;;;;12.70;nan;100527.91;5028407;28;19953;-86
2023/05/05 04:36:34;;;;;;;;;;;;;;;12.69;nan;100550.97;5028754;28;19921;-86
2023/05/05 04:39:00;;;;;;;;;;;;;;;12.65;nan;100557.59;5008864;28;19921;-85
2023/05/05 04:41:25;;;;;;;;;;;;;;;12.63;nan;100566.72;5005514;28;19925;-85
2023/05/05 04:43:51;;;;;;;;;;;;;;;12.65;nan;100559.44;5026042;28;19921;-86
2023/05/05 04:46:16;;;;;;;;;;;;;;;12.73;nan;100560.28;5010252;28;20304;-85
2023/05/05 04:48:41;;;;;;;;;;;;;;;12.84;nan;100569.72;5010431;28;20028;-86
2023/05/05 04:51:07;;;;;;;;;;;;;;;12.95;nan;100577.34;5006599;28;19921;-85
2023/05/05 04:53:32;;;;;;;;;;;;;;;13.06;nan;100583.31;5005566;28;19976;-85
2023/05/05 04:55:58;;;;;;;;;;;;;;;13.13;nan;100579.84;5009795;28;19921;-86
2023/05/05 04:58:24;;;;;;;;;;;;;;;13.23;nan;100578.81;5008883;28;19925;-85
2023/05/05 05:00:49;;;;;;;;;;;;;;;13.35;nan;100574.88;5027300;28;20238;-85
2023/05/05 05:03:14;;;;;;;;;;;;;;;13.51;nan;100568.69;5009868;28;19989;-86
2023/05/05 05:05:40;;;;;;;;;;;;;;;13.69;nan;100566.66;4998652;28;20304;-85
2023/05/05 05:08:05;;;;;;;;;;;;;;;13.85;nan;100562.25;5006088;28;20023;-86
2023/05/05 05:10:30;;;;;;;;;;;;;;;13.99;nan;100564.19;5009543;28;19926;-85
2023/05/05 05:12:55;;;;;;;;;;;;;;;14.16;nan;100576.44;5027103;28;20184;-85
2023/05/05 05:15:20;;;;;;;;;;;;;;;14.33;nan;100574.50;5012641;28;20136;-86
2023/05/05 05:17:46;;;;;;;;;;;;;;;14.50;nan;100577.91;5013770;28;19921;-86
2023/05/05 05:20:11;;;;;;;;;;;;;;;14.77;nan;100584.56;5013340;28;20455;-86
2023/05/05 05:22:37;;;;;;;;;;;;;;;15.22;nan;100587.34;5030851;28;20004;-86
2023/05/05 05:25:03;;;;;;;;;;;;;;;15.69;nan;100594.22;5012521;28;19956;-86
2023/05/05 05:27:28;;;;;;;;;;;;;;;16.07;nan;100594.97;5033230;28;20001;-85
2023/05/05 05:29:53;;;;;;;;;;;;;;;16.52;nan;100592.19;5012572;28;19925;-86
2023/05/05 05:32:18;;;;;;;;;;;;;;;16.93;nan;100586.25;5013699;28;20407;-85
2023/05/05 05:34:43;;;;;;;;;;;;;;;17.30;nan;100584.28;5014572;28;19948;-86
2023/05/05 05:37:09;;;;;;;;;;;;;;;17.48;nan;100595.31;5012107;28;19921;-86
2023/05/05 05:39:34;;;;;;;;;;;;;;;17.65;nan;100592.34;5008011;28;20344;-84
2023/05/05 05:41:59;;;;;;;;;;;;;;;17.94;nan;100593.97;5013357;28;19925;-86
2023/05/05 05:44:24;;;;;;;;;;;;;;;18.26;nan;100589.78;5024584;28;19924;-85
2023/05/05 05:46:49;;;;;;;;;;;;;;;18.50;nan;100591.09;5030520;28;19931;-85
2023/05/05 05:49:15;;;;;;;;;;;;;;;18.59;nan;100597.06;5036227;28;19925;-85
2023/05/05 05:51:40;;;;;;;;;;;;;;;18.70;nan;100599.16;5007452;28;19921;-85
2023/05/05 05:54:06;;;;;;;;;;;;;;;18.97;nan;100601.91;5011290;28;19983;-85
2023/05/05 05:56:31;;;;;;;;;;;;;;;19.22;nan;100602.13;5009805;28;19956;-85
2023/05/05 05:58:56;;;;;;;;;;;;;;;19.21;nan;100598.63;5013256;28;20328;-86
2023/05/05 06:01:21;;;;;;;;;;;;;;;19.20;nan;100602.31;5012054;28;19978;-85
2023/05/05 06:03:47;;;;;;;;;;;;;;;19.10;nan;100602.72;5015561;28;20266;-85
2023/05/05 06:06:12;;;;;;;;;;;;;;;19.13;nan;100614.06;5029155;28;19921;-86
2023/05/05 06:08:37;;;;;;;;;;;;;;;19.20;nan;100613.03;5013503;28;19921;-85
2023/05/05 06:11:02;;;;;;;;;;;;;;;19.24;nan;100613.47;5010946;28;19937;-85
2023/05/05 06:13:27;;;;;;;;;;;;;;;19.20;nan;100615.72;5011728;28;19943;-85
2023/05/05 06:15:53;;;;;;;;;;;;;;;19.18;nan;100609.75;5030782;28;19923;-87
2023/05/05 06:18:18;;;;;;;;;;;;;;;19.38;nan;100611.59;5011551;28;19944;-85
2023/05/05 06:20:43;;;;;;;;;;;;;;;19.58;nan;100617.75;5012368;28;19921;-86
2023/05/05 06:23:09;;;;;;;;;;;;;;;19.64;nan;100616.94;5015612;28;20000;-85
2023/05/05 06:25:35;;;;;;;;;;;;;;;19.77;nan;100618.78;5012024;28;20339;-86
2023/05/05 06:28:00;;;;;;;;;;;;;;;20.05;nan;100623.06;5011739;28;20377;-86
2023/05/05 06:30:26;;;;;;;;;;;;;;;20.51;nan;100622.84;5014657;28;19932;-87
2023/05/05 06:32:53;;;;;;;;;;;;;;;20.87;nan;100623.28;5020108;28;19935;-83
2023/05/05 06:35:18;;;;;;;;;;;;;;;21.02;nan;100620.28;5042614;28;19921;-85
2023/05/05 06:37:45;;;;;;;;;;;;;;;21.07;nan;100623.97;5029357;28;19947;-88
2023/05/05 06:40:10;;;;;;;;;;;;;;;21.04;nan;100620.88;5028461;28;19925;-89
2023/05/05 06:42:35;;;;;;;;;;;;;;;20.88;nan;100625.75;5024882;28;20004;-86
2023/05/05 06:45:01;;;;;;;;;;;;;;;20.88;nan;100627.59;5016440;28;19960;-86
2023/05/05 06:47:26;;;;;;;;;;;;;;;20.84;nan;100626.41;5026663;28;19921;-88
2023/05/05 06:49:52;;;;;;;;;;;;;;;20.69;nan;100619.47;5026977;28;19969;-84
2023/05/05 06:52:17;;;;;;;;;;;;;;;20.70;nan;100623.78;5039275;28;20388;-88
2023/05/05 06:54:43;;;;;;;;;;;;;;;20.72;nan;100623.59;5026754;28;19922;-85
2023/05/05 06:57:08;;;;;;;;;;;;;;;20.79;nan;100630.56;5025910;28;20016;-87
2023/05/05 06:59:47;;;;;;;;;;;;;;;20.97;nan;100628.97;5024168;28;19963;-87
2023/05/05 07:02:12;;;;;;;;;;;;;;;21.07;nan;100633.88;5029603;28;20373;-85
2023/05/05 07:04:41;;;;;;;;;;;;;;;21.30;nan;100625.22;5024135;28;19909;-85
2023/05/05 07:07:06;;;;;;;;;;;;;;;21.53;nan;100627.34;5043592;28;19997;-87
2023/05/05 07:09:32;;;;;;;;;;;;;;;21.57;nan;100644.66;5025295;28;19944;-85
2023/05/05 07:11:57;;;;;;;;;;;;;;;21.46;nan;100640.03;5042566;28;20015;-86
2023/05/05 07:14:22;;;;;;;;;;;;;;;21.38;nan;100628.47;5037840;28;19940;-88
2023/05/05 07:16:47;;;;;;;;;;;;;;;21.30;nan;100631.41;5026909;28;20109;-85
2023/05/05 07:19:13;;;;;;;;;;;;;;;21.48;nan;100629.88;5025935;28;19980;-87
2023/05/05 07:21:38;;;;;;;;;;;;;;;21.69;nan;100634.00;5026358;28;19921;-87
2023/05/05 07:24:04;;;;;;;;;;;;;;;21.87;nan;100638.56;5045847;28;19933;-86
2023/05/05 07:26:30;;;;;;;;;;;;;;;22.22;nan;100636.13;5020751;28;19991;-84
2023/05/05 07:28:57;;;;;;;;;;;;;;;22.62;nan;100635.59;5030891;28;19925;-88
2023/05/05 07:31:22;;;;;;;;;;;;;;;22.98;nan;100631.16;5027570;28;19933;-84
2023/05/05 07:33:48;;;;;;;;;;;;;;;23.44;nan;100637.69;5025687;28;19943;-87
2023/05/05 07:36:13;;;;;;;;;;;;;;;23.81;nan;100641.00;5036980;28;19928;-89
2023/05/05 07:38:38;;;;;;;;;;;;;;;23.71;nan;100638.03;5024752;28;19925;-84
2023/05/05 07:41:04;;;;;;;;;;;;;;;23.62;nan;100642.13;5024994;28;19909;-86
2023/05/05 07:43:29;;;;;;;;;;;;;;;23.49;nan;100635.91;5040508;28;19927;-83
2023/05/05 07:45:54;;;;;;;;;;;;;;;23.53;nan;100630.88;5023501;28;19921;-86
2023/05/05 07:48:20;;;;;;;;;;;;;;;23.69;nan;100630.19;5025336;28;20451;-86
2023/05/05 07:50:45;;;;;;;;;;;;;;;23.97;nan;100636.72;5043641;28;19925;-87
2023/05/05 07:53:10;;;;;;;;;;;;;;;24.24;nan;100631.63;5009496;28;20173;-87
2023/05/05 07:55:35;;;;;;;;;;;;;;;24.59;nan;100630.69;5023504;28;19922;-86
2023/05/05 07:58:02;;;;;;;;;;;;;;;24.83;nan;100631.38;5029814;28;19929;-84
2023/05/05 08:00:27;;;;;;;;;;;;;;;25.20;nan;100633.66;5022941;28;19922;-87
2023/05/05 08:02:52;;;;;;;;;;;;;;;25.60;nan;100629.94;5027021;28;19926;-88
2023/05/05 08:05:18;;;;;;;;;;;;;;;25.92;nan;100629.31;5019644;28;19921;-89
2023/05/05 08:07:43;;;;;;;;;;;;;;;26.28;nan;100619.72;5021283;28;20122;-86
2023/05/05 08:10:11;;;;;;;;;;;;;;;26.79;nan;100624.88;5024848;28;19925;-84
2023/05/05 08:12:36;;;;;;;;;;;;;;;26.92;nan;100627.16;5027086;28;19921;-86
2023/05/05 08:15:02;;;;;;;;;;;;;;;27.06;nan;100625.66;5025949;28;19924;-85
2023/05/05 08:17:27;;;;;;;;;;;;;;;27.31;nan;100619.63;5025394;28;20289;-88
2023/05/05 08:19:53;;;;;;;;;;;;;;;27.53;nan;100622.22;5012405;28;19921;-87
2023/05/05 08:22:19;;;;;;;;;;;;;;;27.75;nan;100621.25;5007525;28;20415;-85
2023/05/05 08:24:44;;;;;;;;;;;;;;;27.74;nan;100620.44;5021876;28;19917;-86
2023/05/05 08:27:09;;;;;;;;;;;;;;;28.04;nan;100618.97;5026683;28;19921;-87
2023/05/05 08:29:34;;;;;;;;;;;;;;;28.54;nan;100617.50;5025561;28;19925;-85
2023/05/05 08:31:59;;;;;;;;;;;;;;;29.15;nan;100618.66;5044362;28;19917;-88
2023/05/05 08:34:25;;;;;;;;;;;;;;;29.66;nan;100615.84;5021251;28;19929;-87
2023/05/05 08:36:50;;;;;;;;;;;;;;;29.33;nan;100615.38;5016223;28;19926;-87
2023/05/05 08:39:15;;;;;;;;;;;;;;;29.30;nan;100607.75;5013790;28;20378;-88
2023/05/05 08:41:40;;;;;;;;;;;;;;;29.76;nan;100618.56;5025691;28;20356;-86
2023/05/05 08:44:06;;;;;;;;;;;;;;;30.28;nan;100616.44;5025674;28;19925;-88
2023/05/05 08:46:34;;;;;;;;;;;;;;;30.36;nan;100609.59;5026216;28;19921;-85
2023/05/05 08:49:02;;;;;;;;;;;;;;;30.99;nan;100614.34;5046371;28;19909;-88
2023/05/05 08:51:30;;;;;;;;;;;;;;;31.13;nan;100606.28;5030802;28;19921;-86
2023/05/05 08:54:02;;;;;;;;;;;;;;;31.44;nan;100615.03;5029142;28;19921;-87
2023/05/05 08:56:31;;;;;;;;;;;;;;;31.78;nan;100614.13;5025106;28;19929;-85
2023/05/05 08:58:58;;;;;;;;;;;;;;;32.00;nan;100616.34;5027437;28;20380;-88
2023/05/05 09:01:23;;;;;;;;;;;;;;;31.77;nan;100607.81;5051981;23;20365;-79
2023/05/05 09:03:50;;;;;;;;;;;;;;;31.94;nan;100608.19;5057628;23;19932;-84
2023/05/05 09:06:15;;;;;;;;;;;;;;;32.03;nan;100607.53;5021625;28;19943;-82
2023/05/05 09:08:40;;;;;;;;;;;;;;;31.97;nan;100595.88;5026508;28;19921;-85
2023/05/05 09:11:05;;;;;;;;;;;;;;;32.36;nan;100603.78;5030627;28;19929;-84
2023/05/05 09:13:31;;;;;;;;;;;;;;;32.81;nan;100608.06;5034153;28;19921;-85
2023/05/05 09:15:57;;;;;;;;;;;;;;;32.89;nan;100599.97;5021054;28;20355;-87
2023/05/05 09:18:22;;;;;;;;;;;;;;;33.13;nan;100604.53;5021509;28;19924;-87
2023/05/05 09:20:47;;;;;;;;;;;;;;;33.32;nan;100605.25;5022635;28;19921;-88
2023/05/05 09:23:13;;;;;;;;;;;;;;;33.59;nan;100603.72;5041953;28;20179;-84
2023/05/05 09:25:40;;;;;;;;;;;;;;;33.77;nan;100596.47;5040950;28;19949;-86
2023/05/05 09:28:09;;;;;;;;;;;;;;;34.13;nan;100587.50;5038017;28;19917;-88
2023/05/05 09:30:35;;;;;;;;;;;;;;;34.33;nan;100598.03;5041712;28;19925;-87
2023/05/05 09:33:01;;;;;;;;;;;;;;;34.32;nan;100595.59;5021841;28;19921;-86
2023/05/05 09:35:26;;;;;;;;;;;;;;;34.77;nan;100588.19;5031235;28;19928;-86
2023/05/05 09:37:51;;;;;;;;;;;;;;;34.74;nan;100577.84;5048858;28;19933;-88
2023/05/05 09:40:17;;;;;;;;;;;;;;;35.36;nan;100581.75;5037854;28;19944;-85
2023/05/05 09:42:46;;;;;;;;;;;;;;;35.42;nan;100584.06;5015663;28;19922;-88
2023/05/05 09:45:17;;;;;;;;;;;;;;;35.14;nan;100575.19;5021871;28;19922;-88
2023/05/05 09:47:44;;;;;;;;;;;;;;;35.31;nan;100580.78;5016297;28;19971;-88
2023/05/05 09:50:13;;;;;;;;;;;;;;;35.29;nan;100574.78;5018791;28;20294;-89
2023/05/05 09:52:38;;;;;;;;;;;;;;;35.02;nan;100573.00;5023753;28;19905;-86
2023/05/05 09:55:03;;;;;;;;;;;;;;;35.19;nan;100566.00;5025756;28;20309;-89
2023/05/05 09:57:34;;;;;;;;;;;;;;;35.24;nan;100569.41;5027489;28;20000;-88
2023/05/05 10:00:00;;;;;;;;;;;;;;;35.00;nan;100567.00;5028785;28;19930;-84
2023/05/05 10:02:34;;;;;;;;;;;;;;;35.29;nan;100568.47;5025748;28;19926;-88
2023/05/05 10:05:03;;;;;;;;;;;;;;;34.93;nan;100572.16;5010643;28;19936;-88
2023/05/05 10:07:28;;;;;;;;;;;;;;;34.48;nan;100567.47;5008185;28;19921;-86
2023/05/05 10:09:53;;;;;;;;;;;;;;;34.32;nan;100568.94;5026761;28;19941;-86
2023/05/05 10:12:19;;;;;;;;;;;;;;;34.57;nan;100572.22;4996838;28;19984;-87
2023/05/05 10:14:44;;;;;;;;;;;;;;;34.72;nan;100555.38;5001274;28;19949;-87
2023/05/05 10:17:10;;;;;;;;;;;;;;;35.05;nan;100563.31;5020580;28;19921;-85
2023/05/05 10:19:35;;;;;;;;;;;;;;;35.24;nan;100574.91;5016132;28;19936;-87
2023/05/05 10:22:02;;;;;;;;;;;;;;;35.69;nan;100563.78;5019476;28;20056;-87
2023/05/05 10:24:36;;;;;;;;;;;;;;;35.77;nan;100564.13;5019810;28;20596;-86
2023/05/05 10:27:06;;;;;;;;;;;;;;;36.08;nan;100551.03;5006897;28;20333;-85
2023/05/05 10:29:53;;;;;;;;;;;;;;;35.88;nan;100552.47;5012532;28;19926;-84
2023/05/05 10:32:39;;;;;;;;;;;;;;;36.06;nan;100542.28;5024788;28;19951;-87
2023/05/05 10:35:07;;;;;;;;;;;;;;;35.77;nan;100553.09;5023738;28;19925;-88
2023/05/05 10:37:35;;;;;;;;;;;;;;;35.85;nan;100546.78;4999487;28;20546;-85
2023/05/05 10:40:01;;;;;;;;;;;;;;;35.81;nan;100543.88;5025989;28;19922;-88
2023/05/05 10:42:26;;;;;;;;;;;;;;;35.32;nan;100551.31;5022816;28;20012;-90
2023/05/05 10:44:52;;;;;;;;;;;;;;;35.17;nan;100549.03;5018800;28;19922;-91
2023/05/05 10:47:19;;;;;;;;;;;;;;;35.41;nan;100532.94;5000725;28;19918;-89
2023/05/05 10:49:49;;;;;;;;;;;;;;;36.26;nan;100540.88;5068885;23;19932;-86
2023/05/05 10:52:35;;;;;;;;;;;;;;;36.14;nan;100541.50;5024212;28;19925;-85
2023/05/05 10:55:06;;;;;;;;;;;;;;;36.69;nan;100539.22;5022038;28;19921;-85
2023/05/05 10:57:35;;;;;;;;;;;;;;;37.31;nan;100546.97;5026932;28;19952;-86
2023/05/05 11:00:01;;;;;;;;;;;;;;;35.99;nan;100536.44;5065127;23;19923;-87
2023/05/05 11:02:27;;;;;;;;;;;;;;;34.59;nan;100539.75;5062442;28;19909;-86
2023/05/05 11:05:07;;;;;;;;;;;;;;;33.18;nan;100534.03;5046445;28;19928;-86
2023/05/05 11:07:36;;;;;;;;;;;;;;;31.69;nan;100530.00;5031003;28;19925;-88
2023/05/05 11:10:06;;;;;;;;;;;;;;;30.80;nan;100533.13;5029188;28;19948;-86
2023/05/05 11:12:32;;;;;;;;;;;;;;;30.02;nan;100525.75;5030972;28;19921;-83
2023/05/05 11:15:16;;;;;;;;;;;;;;;29.80;nan;100526.16;5041429;28;19928;-83
2023/05/05 11:17:46;;;;;;;;;;;;;;;29.37;nan;100521.13;5039716;28;19928;-82
2023/05/05 11:20:11;;;;;;;;;;;;;;;29.35;nan;100517.84;5040450;28;20138;-88
2023/05/05 11:22:55;;;;;;;;;;;;;;;29.45;nan;100521.63;5068512;28;19988;-86
2023/05/05 11:25:36;;;;;;;;;;;;;;;30.30;nan;100516.06;5040822;28;19913;-85
2023/05/05 11:28:05;;;;;;;;;;;;;;;31.13;nan;100499.75;5054562;28;20397;-84
2023/05/05 11:30:31;;;;;;;;;;;;;;;31.12;nan;100498.97;5046139;28;19968;-87
2023/05/05 11:33:15;;;;;;;;;;;;;;;30.95;nan;100502.13;5043969;28;19940;-85
2023/05/05 11:35:55;;;;;;;;;;;;;;;31.71;nan;100505.13;5049769;28;19905;-86
2023/05/05 11:38:24;;;;;;;;;;;;;;;32.64;nan;100499.09;5149155;22;19928;-85
2023/05/05 11:40:51;;;;;;;;;;;;;;;32.56;nan;100497.84;5015288;28;19914;-85
2023/05/05 11:43:19;;;;;;;;;;;;;;;32.55;nan;100493.50;5007998;28;19922;-84
2023/05/05 11:45:44;;;;;;;;;;;;;;;32.89;nan;100495.06;5003220;28;19921;-88
2023/05/05 11:48:25;;;;;;;;;;;;;;;32.68;nan;100481.78;4989468;28;19925;-84
2023/05/05 11:50:51;;;;;;;;;;;;;;;31.54;nan;100491.94;5003775;28;19928;-85
2023/05/05 11:53:17;;;;;;;;;;;;;;;30.76;nan;100491.09;4998150;28;20389;-85
2023/05/05 11:55:42;;;;;;;;;;;;;;;30.09;nan;100490.81;4993471;28;19918;-86
2023/05/05 11:58:20;;;;;;;;;;;;;;;29.55;nan;100491.63;5019064;28;19918;-87
2023/05/05 12:00:45;;;;;;;;;;;;;;;30.73;nan;100477.22;5027980;28;19951;-85
2023/05/05 12:03:11;;;;;;;;;;;;;;;30.56;nan;100481.19;5030759;28;19921;-87
2023/05/05 12:05:36;;;;;;;;;;;;;;;30.39;nan;100469.88;5031346;28;20016;-87
2023/05/05 12:08:01;;;;;;;;;;;;;;;30.56;nan;100464.81;5006904;28;19925;-84
2023/05/05 12:10:27;;;;;;;;;;;;;;;30.78;nan;100463.53;5009848;28;19909;-86
2023/05/05 12:12:52;;;;;;;;;;;;;;;31.29;nan;100460.25;5028975;28;19965;-88
2023/05/05 12:15:26;;;;;;;;;;;;;;;31.61;nan;100467.78;5030625;28;19905;-86
2023/05/05 12:17:51;;;;;;;;;;;;;;;31.44;nan;100462.00;5030783;28;19921;-87
2023/05/05 12:20:17;;;;;;;;;;;;;;;31.39;nan;100462.84;5031542;28;19917;-85
2023/05/05 12:22:43;;;;;;;;;;;;;;;31.01;nan;100470.97;5012052;28;19916;-86
2023/05/05 12:25:09;;;;;;;;;;;;;;;30.67;nan;100451.88;5010836;28;19909;-86
2023/05/05 12:27:34;;;;;;;;;;;;;;;30.56;nan;100447.63;5019293;28;19934;-87
2023/05/05 12:30:10;;;;;;;;;;;;;;;30.23;nan;100452.78;5020408;28;19936;-87
2023/05/05 12:32:35;;;;;;;;;;;;;;;29.40;nan;100457.91;5008793;28;19945;-88
2023/05/05 12:35:02;;;;;;;;;;;;;;;29.45;nan;100456.25;5013749;28;19929;-88
2023/05/05 12:37:27;;;;;;;;;;;;;;;29.33;nan;100451.94;5015563;28;19910;-85
2023/05/05 12:39:53;;;;;;;;;;;;;;;29.04;nan;100450.94;5030363;28;19926;-85
2023/05/05 12:42:28;;;;;;;;;;;;;;;28.77;nan;100446.63;5024447;28;19905;-83
2023/05/05 12:44:53;;;;;;;;;;;;;;;28.26;nan;100435.75;5028105;28;19984;-84
2023/05/05 12:47:29;;;;;;;;;;;;;;;28.06;nan;100431.16;5013371;28;19917;-85
2023/05/05 12:49:54;;;;;;;;;;;;;;;27.99;nan;100449.63;5004162;28;19952;-88
2023/05/05 12:52:20;;;;;;;;;;;;;;;27.92;nan;100437.09;5023673;28;19960;-86
2023/05/05 12:54:52;;;;;;;;;;;;;;;27.66;nan;100438.91;5001114;28;19932;-83
2023/05/05 12:57:18;;;;;;;;;;;;;;;27.37;nan;100424.16;4998339;28;20372;-86